Rumo Da Sr.a Da Guia — CUBY7 — position and weather

sailwx.info

Track history (hours):
 
Tides and Currents Weather Stations Pressure Air Temp Water Temp Dewpoint Dewpoint Depression Visibility Wind Speed Wind Dir Waves Ship Positions

Rumo Da Sr.a Da Guia

Last reported at 2017-Nov-07 09:56 UTC. Time now 2017-Nov-20 00:29 UTC.
Position N 41°13' W 008°46'.
Warning: this ship's position is 12 days out of date.

Length 23 m.

Type: Fishing. MMSI: 263500201.

Date/timePositionNaut miles runAvg speedWind from/ knotsBaromVisibWave heightAir tempDewpointWater temp
2017-Nov-07 09:56N 41°13' W 008°46'4 8.5
2017-Nov-07 09:30N 41°11' W 008°42'0 0.3
2017-Nov-07 09:00N 41°11' W 008°42'0 0.0
2017-Nov-07 08:30N 41°11' W 008°42'0 0.0
2017-Nov-07 08:00N 41°11' W 008°42'0 0.2
2017-Nov-07 07:30N 41°11' W 008°42'510.4
2017-Nov-07 07:00N 41°06' W 008°43'1 0.0
2017-Nov-06 00:13N 41°06' W 008°43'211.1
2017-Nov-06 00:00N 41°09' W 008°43'2 0.1
2017-Nov-04 10:43N 41°11' W 008°42'0 0.0
2017-Nov-04 10:31N 41°11' W 008°42'0 0.0
2017-Nov-04 10:01N 41°11' W 008°42'0 0.0
2017-Nov-04 09:31N 41°11' W 008°42'0 0.0
2017-Nov-03 09:16N 41°11' W 008°42'0 0.0
2017-Nov-03 09:00N 41°11' W 008°42'0 0.0
2017-Nov-03 08:30N 41°11' W 008°42'0 0.0
2017-Nov-03 08:00N 41°11' W 008°42'0 0.0
2017-Nov-03 07:30N 41°11' W 008°42'0 0.0
2017-Nov-03 07:00N 41°11' W 008°42'0 0.0
2017-Nov-03 06:30N 41°11' W 008°42'0 0.0
2017-Nov-03 06:00N 41°11' W 008°42'3 6.3
2017-Nov-03 05:30N 41°08' W 008°43'1 0.0
2017-Nov-01 23:15N 41°07' W 008°42'310.7
2017-Nov-01 23:00N 41°10' W 008°42'1 0.0
2017-Oct-31 10:20N 41°11' W 008°42'0 0.0
2017-Oct-31 10:00N 41°11' W 008°42'0 0.2
2017-Oct-31 09:30N 41°11' W 008°42'0 0.2
2017-Oct-31 09:00N 41°11' W 008°42'0 0.0
2017-Oct-31 08:30N 41°11' W 008°42'0 0.0
2017-Oct-31 08:00N 41°11' W 008°42'1 2.7
2017-Oct-31 07:30N 41°10' W 008°42'  
Track history (hours):
 
Tides and Currents Weather Stations Pressure Air Temp Water Temp Dewpoint Dewpoint Depression Visibility Wind Speed Wind Dir Waves Ship Positions

Rumo Da Sr.a Da Guia

Last reported at 2017-Nov-07 09:56 UTC. Time now 2017-Nov-20 00:29 UTC.
Position N 41°13' W 008°46'.
Warning: this ship's position is 12 days out of date.

Length 23 m.

Type: Fishing. MMSI: 263500201.

Date/timePositionNaut miles runAvg speedWind from/ knotsBaromVisibWave heightAir tempDewpointWater temp
2017-Nov-07 09:56N 41°13' W 008°46'4 8.5
2017-Nov-07 09:30N 41°11' W 008°42'0 0.3
2017-Nov-07 09:00N 41°11' W 008°42'0 0.0
2017-Nov-07 08:30N 41°11' W 008°42'0 0.0
2017-Nov-07 08:00N 41°11' W 008°42'0 0.2
2017-Nov-07 07:30N 41°11' W 008°42'510.4
2017-Nov-07 07:00N 41°06' W 008°43'1 0.0
2017-Nov-06 00:13N 41°06' W 008°43'211.1
2017-Nov-06 00:00N 41°09' W 008°43'2 0.1
2017-Nov-04 10:43N 41°11' W 008°42'0 0.0
2017-Nov-04 10:31N 41°11' W 008°42'0 0.0
2017-Nov-04 10:01N 41°11' W 008°42'0 0.0
2017-Nov-04 09:31N 41°11' W 008°42'0 0.0
2017-Nov-03 09:16N 41°11' W 008°42'0 0.0
2017-Nov-03 09:00N 41°11' W 008°42'0 0.0
2017-Nov-03 08:30N 41°11' W 008°42'0 0.0
2017-Nov-03 08:00N 41°11' W 008°42'0 0.0
2017-Nov-03 07:30N 41°11' W 008°42'0 0.0
2017-Nov-03 07:00N 41°11' W 008°42'0 0.0
2017-Nov-03 06:30N 41°11' W 008°42'0 0.0
2017-Nov-03 06:00N 41°11' W 008°42'3 6.3
2017-Nov-03 05:30N 41°08' W 008°43'1 0.0
2017-Nov-01 23:15N 41°07' W 008°42'310.7
2017-Nov-01 23:00N 41°10' W 008°42'1 0.0
2017-Oct-31 10:20N 41°11' W 008°42'0 0.0
2017-Oct-31 10:00N 41°11' W 008°42'0 0.2
2017-Oct-31 09:30N 41°11' W 008°42'0 0.2
2017-Oct-31 09:00N 41°11' W 008°42'0 0.0
2017-Oct-31 08:30N 41°11' W 008°42'0 0.0
2017-Oct-31 08:00N 41°11' W 008°42'1 2.7
2017-Oct-31 07:30N 41°10' W 008°42'  

Dump ship's entire track history